Time;durP1;ratioP1;P1;durP2;ratioP2;P2;SDS_P1;SDS_P2;PMS_P1;PMS_P2;Temp;Humidity;BMP_temperature;BMP_pressure;BME280_temperature;BME280_humidity;BME280_pressure;Samples;Min_cycle;Max_cycle;Signal;HPM_P1;HPM_P2
2022/09/19 00:00:24;;;;;;;0.95;0.90;;;;;;;;;;5032483;28;24493;-46
2022/09/19 00:02:49;;;;;;;1.48;1.00;;;;;;;;;;5035524;28;24519;-47
2022/09/19 00:05:15;;;;;;;1.00;1.00;;;;;;;;;;5040079;28;24740;-46
2022/09/19 00:07:40;;;;;;;1.10;1.00;;;;;;;;;;5033126;28;24412;-47
2022/09/19 00:10:06;;;;;;;1.10;0.90;;;;;;;;;;5042807;28;25282;-46
2022/09/19 00:12:31;;;;;;;1.40;1.10;;;;;;;;;;5038596;28;24462;-46
2022/09/19 00:14:57;;;;;;;1.10;1.00;;;;;;;;;;5039831;28;24468;-46
2022/09/19 00:17:22;;;;;;;0.90;0.90;;;;;;;;;;5029132;28;24423;-47
2022/09/19 00:19:47;;;;;;;1.02;0.80;;;;;;;;;;5037710;28;24477;-46
2022/09/19 00:22:12;;;;;;;1.55;1.05;;;;;;;;;;5035039;28;24535;-46
2022/09/19 00:24:48;;;;;;;1.20;0.90;;;;;;;;;;5036580;28;24415;-46
2022/09/19 00:27:15;;;;;;;1.00;0.90;;;;;;;;;;5027562;28;24423;-46
2022/09/19 00:29:43;;;;;;;1.00;1.00;;;;;;;;;;5032666;28;24993;-46
2022/09/19 00:32:12;;;;;;;1.00;0.90;;;;;;;;;;5032812;28;24432;-46
2022/09/19 00:34:39;;;;;;;1.10;0.85;;;;;;;;;;5037815;28;24431;-47
2022/09/19 00:37:04;;;;;;;0.88;0.80;;;;;;;;;;5042580;28;25583;-46
2022/09/19 00:39:29;;;;;;;1.30;0.80;;;;;;;;;;5040214;28;24969;-46
2022/09/19 00:41:56;;;;;;;1.15;0.90;;;;;;;;;;5037821;28;25001;-46
2022/09/19 00:44:22;;;;;;;1.47;0.90;;;;;;;;;;5032590;28;24412;-47
2022/09/19 00:46:49;;;;;;;1.00;1.00;;;;;;;;;;5033839;28;24886;-46
2022/09/19 00:49:15;;;;;;;0.65;0.65;;;;;;;;;;5029899;28;24447;-46
2022/09/19 00:51:45;;;;;;;0.90;0.80;;;;;;;;;;5033496;28;25349;-47
2022/09/19 00:54:13;;;;;;;0.80;0.70;;;;;;;;;;5032802;28;24934;-47
2022/09/19 00:56:41;;;;;;;1.80;1.00;;;;;;;;;;5041833;28;24422;-48
2022/09/19 00:59:07;;;;;;;0.80;0.80;;;;;;;;;;5037309;28;24453;-47
2022/09/19 01:01:32;;;;;;;1.90;0.90;;;;;;;;;;5034802;28;24981;-47
2022/09/19 01:03:57;;;;;;;0.90;0.80;;;;;;;;;;5034517;28;24901;-47
2022/09/19 01:06:35;;;;;;;0.90;0.90;;;;;;;;;;5036775;28;24438;-47
2022/09/19 01:09:16;;;;;;;1.05;1.00;;;;;;;;;;5031804;28;24970;-46
2022/09/19 01:11:56;;;;;;;0.90;0.90;;;;;;;;;;5031701;28;24519;-46
2022/09/19 01:14:28;;;;;;;1.08;0.98;;;;;;;;;;5036729;28;25480;-46
2022/09/19 01:17:15;;;;;;;0.90;0.90;;;;;;;;;;5034826;28;24450;-46
2022/09/19 01:19:58;;;;;;;0.90;0.90;;;;;;;;;;5027110;28;24434;-46
2022/09/19 01:22:30;;;;;;;1.00;0.90;;;;;;;;;;5031460;28;24435;-47
2022/09/19 01:25:12;;;;;;;1.00;1.00;;;;;;;;;;5031788;28;24435;-46
2022/09/19 01:27:43;;;;;;;0.83;0.80;;;;;;;;;;5038206;28;24821;-46
2022/09/19 01:30:09;;;;;;;1.20;1.10;;;;;;;;;;5030382;28;24439;-45
2022/09/19 01:32:56;;;;;;;0.90;0.90;;;;;;;;;;5034495;28;24415;-47
2022/09/19 01:35:25;;;;;;;1.20;1.10;;;;;;;;;;5038023;28;24530;-47
2022/09/19 01:37:52;;;;;;;0.90;0.90;;;;;;;;;;5040617;28;25082;-45
2022/09/19 01:40:18;;;;;;;0.90;0.90;;;;;;;;;;5032305;28;24435;-45
2022/09/19 01:42:55;;;;;;;1.20;1.10;;;;;;;;;;5030289;28;24794;-46
2022/09/19 01:45:21;;;;;;;1.20;1.10;;;;;;;;;;5031812;28;24497;-45
2022/09/19 01:48:01;;;;;;;1.27;1.17;;;;;;;;;;5033232;28;24496;-46
2022/09/19 01:50:40;;;;;;;1.33;1.13;;;;;;;;;;5027251;28;24443;-45
2022/09/19 01:53:23;;;;;;;1.33;1.30;;;;;;;;;;5030330;28;24898;-46
2022/09/19 01:55:54;;;;;;;1.50;1.40;;;;;;;;;;5026198;28;24551;-46
2022/09/19 01:58:22;;;;;;;1.50;1.40;;;;;;;;;;5037814;28;24828;-46
2022/09/19 02:00:52;;;;;;;1.30;1.30;;;;;;;;;;5031499;28;25058;-46
2022/09/19 02:03:23;;;;;;;1.50;1.40;;;;;;;;;;5028734;28;24501;-46
2022/09/19 02:05:50;;;;;;;2.08;1.70;;;;;;;;;;5032212;28;24442;-46
2022/09/19 02:08:28;;;;;;;2.03;1.50;;;;;;;;;;5033429;28;24427;-46
2022/09/19 02:11:21;;;;;;;2.13;2.03;;;;;;;;;;5037506;28;24513;-47
2022/09/19 02:13:51;;;;;;;1.98;1.80;;;;;;;;;;5037006;28;24436;-46
2022/09/19 02:16:32;;;;;;;2.00;1.90;;;;;;;;;;5038618;28;24520;-45
2022/09/19 02:18:58;;;;;;;2.13;2.03;;;;;;;;;;5037443;28;24438;-45
2022/09/19 02:21:28;;;;;;;2.55;2.40;;;;;;;;;;5038079;28;24969;-45
2022/09/19 02:23:55;;;;;;;3.05;2.85;;;;;;;;;;5034072;28;24458;-45
2022/09/19 02:26:21;;;;;;;2.97;2.78;;;;;;;;;;5045640;28;24445;-44
2022/09/19 02:28:49;;;;;;;3.30;3.10;;;;;;;;;;5037824;28;24431;-45
2022/09/19 02:31:15;;;;;;;3.50;3.20;;;;;;;;;;5036868;28;24451;-46
2022/09/19 02:33:42;;;;;;;3.63;3.43;;;;;;;;;;5032402;28;24937;-46
2022/09/19 02:36:14;;;;;;;4.40;4.10;;;;;;;;;;5031104;28;24479;-45
2022/09/19 02:38:58;;;;;;;4.57;4.22;;;;;;;;;;5031188;28;24940;-46
2022/09/19 02:41:36;;;;;;;4.75;4.40;;;;;;;;;;5040528;28;24433;-47
2022/09/19 02:44:19;;;;;;;3.72;3.53;;;;;;;;;;5041883;28;24426;-47
2022/09/19 02:46:57;;;;;;;4.70;4.30;;;;;;;;;;5038016;28;24442;-46
2022/09/19 02:49:29;;;;;;;5.07;4.68;;;;;;;;;;5041977;28;24430;-46
2022/09/19 02:51:56;;;;;;;4.80;4.40;;;;;;;;;;5036453;28;25118;-46
2022/09/19 02:54:26;;;;;;;4.88;4.57;;;;;;;;;;5038922;28;24451;-46
2022/09/19 02:56:53;;;;;;;5.50;5.00;;;;;;;;;;5043537;28;24514;-46
2022/09/19 02:59:21;;;;;;;4.40;4.10;;;;;;;;;;5036173;28;24446;-46
2022/09/19 03:01:49;;;;;;;4.70;4.30;;;;;;;;;;5032514;28;24514;-46
2022/09/19 03:04:17;;;;;;;3.88;3.67;;;;;;;;;;5033731;28;24434;-46
2022/09/19 03:07:02;;;;;;;5.53;5.13;;;;;;;;;;5035176;28;24412;-46
2022/09/19 03:09:29;;;;;;;4.30;4.00;;;;;;;;;;5032596;28;24451;-46
2022/09/19 03:12:08;;;;;;;4.70;4.30;;;;;;;;;;5035531;28;24569;-46
2022/09/19 03:14:35;;;;;;;4.30;4.00;;;;;;;;;;5037319;28;24475;-47
2022/09/19 03:17:00;;;;;;;4.10;3.90;;;;;;;;;;5027311;28;24791;-47
2022/09/19 03:19:29;;;;;;;5.20;4.90;;;;;;;;;;5035363;28;25243;-46
2022/09/19 03:21:54;;;;;;;4.28;3.97;;;;;;;;;;5033012;28;25246;-46
2022/09/19 03:24:21;;;;;;;4.20;4.00;;;;;;;;;;5039926;28;24430;-46
2022/09/19 03:26:46;;;;;;;4.60;4.30;;;;;;;;;;5036039;28;24519;-46
2022/09/19 03:29:11;;;;;;;4.68;4.38;;;;;;;;;;5041812;28;24521;-47
2022/09/19 03:31:37;;;;;;;4.78;4.47;;;;;;;;;;5040441;28;24443;-46
2022/09/19 03:34:03;;;;;;;5.13;4.72;;;;;;;;;;5040707;28;24770;-46
2022/09/19 03:36:29;;;;;;;5.10;4.80;;;;;;;;;;5040768;28;24543;-46
2022/09/19 03:38:55;;;;;;;5.50;5.10;;;;;;;;;;5040475;28;24419;-46
2022/09/19 03:41:21;;;;;;;4.90;4.60;;;;;;;;;;5041368;28;25295;-45
2022/09/19 03:43:47;;;;;;;5.10;4.70;;;;;;;;;;5034526;28;24430;-44
2022/09/19 03:46:14;;;;;;;5.22;4.82;;;;;;;;;;5045342;28;24786;-45
2022/09/19 03:48:40;;;;;;;5.60;5.18;;;;;;;;;;5042668;28;24554;-45
2022/09/19 03:51:06;;;;;;;4.93;4.53;;;;;;;;;;5046329;28;24423;-45
2022/09/19 03:53:31;;;;;;;5.50;5.10;;;;;;;;;;5048198;28;24977;-47
2022/09/19 03:55:57;;;;;;;5.00;4.70;;;;;;;;;;5052323;28;24518;-46
2022/09/19 03:58:23;;;;;;;6.13;5.63;;;;;;;;;;5040915;28;24422;-46
2022/09/19 04:00:48;;;;;;;5.50;5.20;;;;;;;;;;5039977;28;24443;-46
2022/09/19 04:03:13;;;;;;;6.60;6.20;;;;;;;;;;5047486;28;24435;-46
2022/09/19 04:05:39;;;;;;;6.28;5.80;;;;;;;;;;5041941;28;24493;-46
2022/09/19 04:08:05;;;;;;;7.50;6.90;;;;;;;;;;5055152;28;24434;-46
2022/09/19 04:10:30;;;;;;;7.15;6.65;;;;;;;;;;5049542;28;24512;-46
2022/09/19 04:12:56;;;;;;;7.50;6.90;;;;;;;;;;5049509;28;25129;-53
2022/09/19 04:15:21;;;;;;;6.47;6.07;;;;;;;;;;5040273;28;24426;-47
2022/09/19 04:17:46;;;;;;;7.10;6.60;;;;;;;;;;5029988;28;24432;-46
2022/09/19 04:20:11;;;;;;;6.80;6.30;;;;;;;;;;5036116;28;24474;-47
2022/09/19 04:22:37;;;;;;;6.45;6.03;;;;;;;;;;5032689;28;24455;-46
2022/09/19 04:25:03;;;;;;;6.70;6.20;;;;;;;;;;5041754;28;24488;-47
2022/09/19 04:27:28;;;;;;;6.35;5.85;;;;;;;;;;5037656;28;24497;-47
2022/09/19 04:29:54;;;;;;;6.55;6.05;;;;;;;;;;5039618;28;24845;-48
2022/09/19 04:32:20;;;;;;;5.00;4.70;;;;;;;;;;5038389;28;24422;-46
2022/09/19 04:34:47;;;;;;;6.28;5.70;;;;;;;;;;5040123;28;24438;-46
2022/09/19 04:37:15;;;;;;;5.60;5.20;;;;;;;;;;5041646;28;24856;-48
2022/09/19 04:39:40;;;;;;;6.10;5.60;;;;;;;;;;5038423;28;24419;-47
2022/09/19 04:42:05;;;;;;;6.30;5.70;;;;;;;;;;5036631;28;25046;-48
2022/09/19 04:44:30;;;;;;;5.50;5.00;;;;;;;;;;5039329;28;24729;-47
2022/09/19 04:46:56;;;;;;;5.20;4.80;;;;;;;;;;5041161;28;24423;-48
2022/09/19 04:49:21;;;;;;;4.87;4.40;;;;;;;;;;5031142;28;24972;-46
2022/09/19 04:51:46;;;;;;;5.40;5.00;;;;;;;;;;5036189;28;24433;-48
2022/09/19 04:54:14;;;;;;;5.20;4.80;;;;;;;;;;5027738;28;24843;-46
2022/09/19 04:56:39;;;;;;;4.70;4.30;;;;;;;;;;5024995;28;24461;-47
2022/09/19 04:59:04;;;;;;;5.50;5.00;;;;;;;;;;5038488;28;24988;-47
2022/09/19 05:01:32;;;;;;;5.10;4.70;;;;;;;;;;5043269;28;24387;-46
2022/09/19 05:03:58;;;;;;;4.70;4.30;;;;;;;;;;5029672;28;24458;-46
2022/09/19 05:06:32;;;;;;;4.90;4.60;;;;;;;;;;5024213;28;24518;-47
2022/09/19 05:08:58;;;;;;;4.80;4.50;;;;;;;;;;5022211;28;24490;-46
2022/09/19 05:11:23;;;;;;;5.47;5.10;;;;;;;;;;5030885;28;24452;-45
2022/09/19 05:13:49;;;;;;;4.80;4.40;;;;;;;;;;5037109;28;24442;-45
2022/09/19 05:16:15;;;;;;;5.00;4.60;;;;;;;;;;5033287;28;24420;-46
2022/09/19 05:18:41;;;;;;;4.75;4.35;;;;;;;;;;5031464;28;24436;-46
2022/09/19 05:21:07;;;;;;;4.90;4.50;;;;;;;;;;5039999;28;24874;-47
2022/09/19 05:23:33;;;;;;;4.43;4.13;;;;;;;;;;5039890;28;24423;-47
2022/09/19 05:26:02;;;;;;;4.90;4.60;;;;;;;;;;5034278;28;24762;-46
2022/09/19 05:28:27;;;;;;;5.50;5.00;;;;;;;;;;5046133;28;24772;-47
2022/09/19 05:30:55;;;;;;;5.50;5.00;;;;;;;;;;5045169;28;24414;-46
2022/09/19 05:33:28;;;;;;;5.20;4.80;;;;;;;;;;5045102;28;24778;-46
2022/09/19 05:35:55;;;;;;;5.60;5.20;;;;;;;;;;5040732;28;24445;-45
2022/09/19 05:38:20;;;;;;;5.93;5.53;;;;;;;;;;5035956;28;24506;-46
2022/09/19 05:40:46;;;;;;;5.47;5.07;;;;;;;;;;5039643;28;25025;-46
2022/09/19 05:43:11;;;;;;;5.93;5.53;;;;;;;;;;5041761;28;24400;-46
2022/09/19 05:45:43;;;;;;;7.27;6.77;;;;;;;;;;5026717;28;24419;-47
2022/09/19 05:48:08;;;;;;;6.73;6.23;;;;;;;;;;5032161;28;25058;-46
2022/09/19 05:50:33;;;;;;;6.90;6.40;;;;;;;;;;5035660;28;24444;-46
2022/09/19 05:55:43;;;;;;;7.00;6.50;;;;;;;;;;5034927;28;24972;-47
2022/09/19 05:58:08;;;;;;;8.03;7.43;;;;;;;;;;5040961;28;24427;-47
2022/09/19 06:00:37;;;;;;;6.80;6.20;;;;;;;;;;5046083;28;24418;-47
2022/09/19 06:03:03;;;;;;;6.72;6.22;;;;;;;;;;5042475;28;24496;-47
2022/09/19 06:05:32;;;;;;;7.15;6.55;;;;;;;;;;5031219;28;24830;-46
2022/09/19 06:07:58;;;;;;;6.57;6.07;;;;;;;;;;5040746;28;24530;-48
2022/09/19 06:10:23;;;;;;;6.70;6.20;;;;;;;;;;5035251;28;24542;-47
2022/09/19 06:12:49;;;;;;;6.40;5.90;;;;;;;;;;5038197;28;24466;-46
2022/09/19 06:15:14;;;;;;;7.33;6.80;;;;;;;;;;5030515;28;24798;-46
2022/09/19 06:17:39;;;;;;;6.60;6.10;;;;;;;;;;5041060;28;24423;-46
2022/09/19 06:20:04;;;;;;;7.20;6.50;;;;;;;;;;5046278;28;24448;-47
2022/09/19 06:22:30;;;;;;;6.20;5.70;;;;;;;;;;5038065;28;24434;-46
2022/09/19 06:24:55;;;;;;;6.13;5.70;;;;;;;;;;5034202;28;24423;-47
2022/09/19 06:27:20;;;;;;;5.80;5.40;;;;;;;;;;5034581;28;24450;-46
2022/09/19 06:29:46;;;;;;;7.03;6.53;;;;;;;;;;5047318;28;24439;-47
2022/09/19 06:32:11;;;;;;;6.22;5.72;;;;;;;;;;5048854;28;24394;-48
2022/09/19 06:34:37;;;;;;;7.70;7.10;;;;;;;;;;5045718;28;26252;-46
2022/09/19 06:37:02;;;;;;;6.77;6.27;;;;;;;;;;5030674;28;24457;-46
2022/09/19 06:39:27;;;;;;;7.20;6.70;;;;;;;;;;5039963;28;24817;-46
2022/09/19 06:41:52;;;;;;;7.40;6.80;;;;;;;;;;5034179;28;24518;-46
2022/09/19 06:44:17;;;;;;;7.10;6.60;;;;;;;;;;5041369;28;24752;-47
2022/09/19 06:46:43;;;;;;;6.87;6.27;;;;;;;;;;5044962;28;24423;-47
2022/09/19 06:49:08;;;;;;;7.57;6.97;;;;;;;;;;5031779;28;24527;-48
2022/09/19 06:51:33;;;;;;;7.00;6.50;;;;;;;;;;5045618;28;24403;-46
2022/09/19 06:53:59;;;;;;;6.72;6.20;;;;;;;;;;5048838;28;24967;-46
2022/09/19 06:56:24;;;;;;;6.30;5.80;;;;;;;;;;5048376;28;24461;-46
2022/09/19 06:58:49;;;;;;;6.63;6.13;;;;;;;;;;5039470;28;24467;-46
2022/09/19 07:01:15;;;;;;;7.15;6.65;;;;;;;;;;5028534;28;25037;-47
2022/09/19 07:03:41;;;;;;;6.20;5.80;;;;;;;;;;5026725;28;24972;-46
2022/09/19 07:06:07;;;;;;;6.57;5.97;;;;;;;;;;5028837;28;24441;-47
2022/09/19 07:08:32;;;;;;;6.00;5.60;;;;;;;;;;5030911;28;25051;-47
2022/09/19 07:10:57;;;;;;;5.90;5.50;;;;;;;;;;5043671;28;24423;-47
2022/09/19 07:13:23;;;;;;;5.50;5.20;;;;;;;;;;5033293;28;24569;-47
2022/09/19 07:15:48;;;;;;;6.03;5.53;;;;;;;;;;5047111;28;24422;-47
2022/09/19 07:18:13;;;;;;;6.60;6.10;;;;;;;;;;5048682;28;24929;-47
2022/09/19 07:20:39;;;;;;;6.90;6.40;;;;;;;;;;5048317;28;24426;-47
2022/09/19 07:23:05;;;;;;;6.10;5.60;;;;;;;;;;5047942;28;24405;-47
2022/09/19 07:25:31;;;;;;;6.10;5.70;;;;;;;;;;5047280;28;24462;-47
2022/09/19 07:27:57;;;;;;;6.65;6.15;;;;;;;;;;5048478;28;24864;-47
2022/09/19 07:30:23;;;;;;;7.80;7.20;;;;;;;;;;5046763;28;24471;-46
2022/09/19 07:32:48;;;;;;;7.57;7.00;;;;;;;;;;5045946;28;24376;-47
2022/09/19 07:35:13;;;;;;;7.10;6.50;;;;;;;;;;5046990;28;24996;-46
2022/09/19 07:37:39;;;;;;;7.10;6.60;;;;;;;;;;5047117;28;24454;-47
2022/09/19 07:40:05;;;;;;;6.80;6.30;;;;;;;;;;5047898;28;24433;-46
2022/09/19 07:42:30;;;;;;;6.37;5.87;;;;;;;;;;5047663;28;24402;-47
2022/09/19 07:44:55;;;;;;;5.47;5.07;;;;;;;;;;5048245;28;24453;-47
2022/09/19 07:47:26;;;;;;;6.60;6.10;;;;;;;;;;5045878;28;24416;-46
2022/09/19 07:49:54;;;;;;;6.00;5.60;;;;;;;;;;5048153;28;24937;-47
2022/09/19 07:52:19;;;;;;;5.60;5.30;;;;;;;;;;5047540;28;24399;-46
2022/09/19 07:54:44;;;;;;;5.70;5.30;;;;;;;;;;5047375;28;24394;-46
2022/09/19 07:57:10;;;;;;;6.32;5.82;;;;;;;;;;5047651;28;24399;-47
2022/09/19 07:59:35;;;;;;;5.25;4.95;;;;;;;;;;5047238;28;24514;-46
2022/09/19 08:02:00;;;;;;;5.97;5.57;;;;;;;;;;5047213;28;25031;-47
2022/09/19 08:04:26;;;;;;;5.85;5.53;;;;;;;;;;5047388;28;24391;-46
2022/09/19 08:06:51;;;;;;;5.30;4.90;;;;;;;;;;5047688;28;24457;-47
2022/09/19 08:09:16;;;;;;;5.60;5.30;;;;;;;;;;5037253;28;24436;-46
2022/09/19 08:11:42;;;;;;;4.88;4.57;;;;;;;;;;5026260;28;24910;-47
2022/09/19 08:14:07;;;;;;;4.95;4.65;;;;;;;;;;5027537;28;24495;-47
2022/09/19 08:16:32;;;;;;;4.45;4.15;;;;;;;;;;5027315;28;24397;-46
2022/09/19 08:18:58;;;;;;;4.18;3.97;;;;;;;;;;5038675;28;24423;-46
2022/09/19 08:21:24;;;;;;;4.30;3.90;;;;;;;;;;5026651;28;25089;-46
2022/09/19 08:23:49;;;;;;;3.60;3.40;;;;;;;;;;5027170;28;24475;-47
2022/09/19 08:26:14;;;;;;;4.83;4.50;;;;;;;;;;5027354;28;25084;-47
2022/09/19 08:28:39;;;;;;;4.70;4.40;;;;;;;;;;5027040;28;24587;-47
2022/09/19 08:31:04;;;;;;;4.15;3.85;;;;;;;;;;5043577;28;24415;-47
2022/09/19 08:33:30;;;;;;;2.38;2.28;;;;;;;;;;5046704;28;24491;-47
2022/09/19 08:35:57;;;;;;;2.80;2.60;;;;;;;;;;5046862;28;24465;-47
2022/09/19 08:38:22;;;;;;;2.22;2.13;;;;;;;;;;5046426;28;24969;-46
2022/09/19 08:41:05;;;;;;;2.40;2.20;;;;;;;;;;5045975;28;24507;-46
2022/09/19 08:43:45;;;;;;;2.50;2.30;;;;;;;;;;5046486;28;24939;-46
2022/09/19 08:46:25;;;;;;;2.50;2.40;;;;;;;;;;5047017;28;24781;-48
2022/09/19 08:48:50;;;;;;;2.00;1.90;;;;;;;;;;5046659;28;25098;-46
2022/09/19 08:51:38;;;;;;;2.30;2.17;;;;;;;;;;5039005;28;25033;-47
2022/09/19 08:54:10;;;;;;;2.20;2.10;;;;;;;;;;5026281;28;24419;-46
2022/09/19 08:56:36;;;;;;;2.15;2.05;;;;;;;;;;5026798;28;24438;-48
2022/09/19 08:59:04;;;;;;;2.22;2.13;;;;;;;;;;5026619;28;24406;-46
2022/09/19 09:01:35;;;;;;;2.30;2.10;;;;;;;;;;5031398;28;24805;-46
2022/09/19 09:04:07;;;;;;;2.50;2.30;;;;;;;;;;5046640;28;24398;-46
2022/09/19 09:06:35;;;;;;;2.80;2.30;;;;;;;;;;5046558;28;24380;-46
2022/09/19 09:09:09;;;;;;;2.40;2.30;;;;;;;;;;5046669;28;24996;-46
2022/09/19 09:11:39;;;;;;;3.03;2.85;;;;;;;;;;5045625;28;24438;-46
2022/09/19 09:14:23;;;;;;;3.00;2.80;;;;;;;;;;5046434;28;24402;-45
2022/09/19 09:16:54;;;;;;;3.10;2.90;;;;;;;;;;5046352;28;24507;-46
2022/09/19 09:19:27;;;;;;;2.88;2.67;;;;;;;;;;5046525;28;24495;-47
2022/09/19 09:21:59;;;;;;;3.47;3.28;;;;;;;;;;5045215;28;24498;-45
2022/09/19 09:24:40;;;;;;;3.33;3.13;;;;;;;;;;5030451;28;24531;-46
2022/09/19 09:27:14;;;;;;;4.22;3.92;;;;;;;;;;5030580;28;24394;-46
2022/09/19 09:29:52;;;;;;;4.17;3.87;;;;;;;;;;5030457;28;24462;-47
2022/09/19 09:32:17;;;;;;;4.88;4.57;;;;;;;;;;5028049;28;24392;-47
2022/09/19 09:34:47;;;;;;;4.90;4.60;;;;;;;;;;5036001;28;24442;-46
2022/09/19 09:37:19;;;;;;;5.93;5.50;;;;;;;;;;5048753;28;24434;-46
2022/09/19 09:39:59;;;;;;;6.78;6.38;;;;;;;;;;5050078;28;24394;-46
2022/09/19 09:42:28;;;;;;;6.38;5.97;;;;;;;;;;5050007;28;24965;-47
2022/09/19 09:44:57;;;;;;;6.95;6.43;;;;;;;;;;5050222;28;24418;-46
2022/09/19 09:47:43;;;;;;;7.05;6.55;;;;;;;;;;5030087;28;24408;-46
2022/09/19 09:50:16;;;;;;;7.70;7.20;;;;;;;;;;5030350;28;24418;-44
2022/09/19 09:52:46;;;;;;;7.18;6.68;;;;;;;;;;5029655;28;24649;-46
2022/09/19 09:58:36;;;;;;;8.80;8.20;;;;;;;;;;5030242;28;25289;-47
2022/09/19 10:04:28;;;;;;;7.85;7.35;;;;;;;;;;5029490;28;24419;-45
2022/09/19 10:07:10;;;;;;;7.75;7.25;;;;;;;;;;5039950;28;24453;-47
2022/09/19 10:09:37;;;;;;;7.50;7.00;;;;;;;;;;5049601;28;24468;-45
2022/09/19 10:12:07;;;;;;;6.43;6.03;;;;;;;;;;5049112;28;24748;-47
2022/09/19 10:14:35;;;;;;;7.50;6.90;;;;;;;;;;5047895;28;24921;-47
2022/09/19 10:17:01;;;;;;;6.70;6.20;;;;;;;;;;5048353;28;24985;-45
2022/09/19 10:19:53;;;;;;;5.70;5.20;;;;;;;;;;5049577;28;24406;-46
2022/09/19 10:22:18;;;;;;;6.50;6.10;;;;;;;;;;5048871;28;24461;-46
2022/09/19 10:24:50;;;;;;;5.60;5.30;;;;;;;;;;5049337;28;25005;-45
2022/09/19 10:27:23;;;;;;;5.70;5.30;;;;;;;;;;5047776;28;24431;-45
2022/09/19 10:29:59;;;;;;;6.70;6.13;;;;;;;;;;5029148;28;24450;-47
2022/09/19 10:32:25;;;;;;;6.15;5.65;;;;;;;;;;5029082;28;24412;-47
2022/09/19 10:34:51;;;;;;;5.40;5.10;;;;;;;;;;5029048;28;24458;-48
2022/09/19 10:37:18;;;;;;;5.50;5.10;;;;;;;;;;5030368;28;24419;-44
2022/09/19 10:39:46;;;;;;;5.40;5.10;;;;;;;;;;5040724;28;24434;-47
2022/09/19 10:42:32;;;;;;;6.50;6.00;;;;;;;;;;5029550;28;24774;-48
2022/09/19 10:44:59;;;;;;;6.20;5.80;;;;;;;;;;5029443;28;24809;-47
2022/09/19 10:47:25;;;;;;;6.60;6.20;;;;;;;;;;5029153;28;25021;-45
2022/09/19 10:49:51;;;;;;;6.10;5.60;;;;;;;;;;5042115;28;24454;-46
2022/09/19 10:52:22;;;;;;;5.65;5.25;;;;;;;;;;5048860;28;24856;-47
2022/09/19 10:54:50;;;;;;;6.30;5.82;;;;;;;;;;5049071;28;24407;-45
2022/09/19 10:57:37;;;;;;;6.63;6.13;;;;;;;;;;5049020;28;24811;-48
2022/09/19 11:00:03;;;;;;;6.75;6.30;;;;;;;;;;5048661;28;24388;-46
2022/09/19 11:02:29;;;;;;;7.00;6.50;;;;;;;;;;5045954;28;24477;-54
2022/09/19 11:04:59;;;;;;;7.40;6.90;;;;;;;;;;5048885;28;24449;-47
2022/09/19 11:07:28;;;;;;;7.32;6.82;;;;;;;;;;5048689;28;24491;-46
2022/09/19 11:09:59;;;;;;;8.10;7.50;;;;;;;;;;5048139;28;25272;-46
2022/09/19 11:12:24;;;;;;;8.23;7.63;;;;;;;;;;5047225;28;24526;-45
2022/09/19 11:14:49;;;;;;;7.30;6.80;;;;;;;;;;5047632;28;24503;-45
2022/09/19 11:17:29;;;;;;;7.80;7.20;;;;;;;;;;5048743;28;24979;-47
2022/09/19 11:20:14;;;;;;;6.80;6.20;;;;;;;;;;5048614;28;24494;-46
2022/09/19 11:23:10;;;;;;;6.70;6.10;;;;;;;;;;5038201;28;25230;-45
2022/09/19 11:25:44;;;;;;;6.25;5.78;;;;;;;;;;5028636;28;24388;-46
2022/09/19 11:28:31;;;;;;;6.38;5.88;;;;;;;;;;5032775;28;24511;-47
2022/09/19 11:30:56;;;;;;;5.70;5.30;;;;;;;;;;5040702;28;24428;-45
2022/09/19 11:33:35;;;;;;;5.18;4.82;;;;;;;;;;5028142;28;24471;-46
2022/09/19 11:36:22;;;;;;;6.15;5.55;;;;;;;;;;5028127;28;24431;-45
2022/09/19 11:38:54;;;;;;;5.60;5.30;;;;;;;;;;5028198;28;24530;-45
2022/09/19 11:41:44;;;;;;;6.10;5.70;;;;;;;;;;5030823;28;24416;-46
2022/09/19 11:44:28;;;;;;;6.50;6.00;;;;;;;;;;5047036;28;24415;-45
2022/09/19 11:47:14;;;;;;;4.95;4.65;;;;;;;;;;5047153;28;24484;-46
2022/09/19 11:49:51;;;;;;;4.80;4.50;;;;;;;;;;5047705;28;24980;-45
2022/09/19 11:52:30;;;;;;;4.55;4.25;;;;;;;;;;5046460;28;24982;-46
2022/09/19 11:55:14;;;;;;;4.00;3.80;;;;;;;;;;5047864;28;24395;-47
2022/09/19 11:57:47;;;;;;;3.70;3.40;;;;;;;;;;5047555;28;24758;-46
2022/09/19 12:00:18;;;;;;;4.05;3.80;;;;;;;;;;5047745;28;24403;-47
2022/09/19 12:02:53;;;;;;;3.78;3.58;;;;;;;;;;5044266;28;24445;-47
2022/09/19 12:05:31;;;;;;;3.67;3.47;;;;;;;;;;5047491;28;25056;-47
2022/09/19 12:08:16;;;;;;;3.05;2.85;;;;;;;;;;5047707;28;24394;-48
2022/09/19 12:10:48;;;;;;;2.53;2.33;;;;;;;;;;5047107;28;25188;-47
2022/09/19 12:13:18;;;;;;;3.22;2.92;;;;;;;;;;5043588;28;24407;-48
2022/09/19 12:15:45;;;;;;;3.03;2.83;;;;;;;;;;5047051;28;24473;-47
2022/09/19 12:18:13;;;;;;;2.90;2.70;;;;;;;;;;5047433;28;24668;-46
2022/09/19 12:20:44;;;;;;;3.13;2.92;;;;;;;;;;5042942;28;24434;-46
2022/09/19 12:26:06;;;;;;;2.90;2.70;;;;;;;;;;5040409;28;24457;-47
2022/09/19 12:28:35;;;;;;;2.40;2.30;;;;;;;;;;5047297;28;24959;-47
2022/09/19 12:31:03;;;;;;;2.00;1.90;;;;;;;;;;5046939;28;25023;-51
2022/09/19 12:33:47;;;;;;;2.40;2.20;;;;;;;;;;5046782;28;24380;-46
2022/09/19 12:36:30;;;;;;;2.40;2.20;;;;;;;;;;5045905;28;24500;-46
2022/09/19 12:38:58;;;;;;;2.60;2.40;;;;;;;;;;5026901;28;24925;-47
2022/09/19 12:41:28;;;;;;;2.20;2.00;;;;;;;;;;5026989;28;24402;-47
2022/09/19 12:44:05;;;;;;;2.05;1.95;;;;;;;;;;5026424;28;24391;-48
2022/09/19 12:46:42;;;;;;;2.00;1.90;;;;;;;;;;5027728;28;24497;-48
2022/09/19 12:49:07;;;;;;;2.50;2.08;;;;;;;;;;5026994;28;24431;-46
2022/09/19 12:51:42;;;;;;;1.98;1.65;;;;;;;;;;5027055;28;24458;-47
2022/09/19 12:54:13;;;;;;;2.30;2.10;;;;;;;;;;5026734;28;24743;-51
2022/09/19 12:56:40;;;;;;;2.38;2.00;;;;;;;;;;5041396;28;24514;-48
2022/09/19 12:59:06;;;;;;;2.05;1.95;;;;;;;;;;5046159;28;24400;-48
2022/09/19 13:01:39;;;;;;;1.70;1.60;;;;;;;;;;5045182;28;24797;-47
2022/09/19 13:04:13;;;;;;;1.80;1.70;;;;;;;;;;5046264;28;24802;-47
2022/09/19 13:06:41;;;;;;;2.40;2.20;;;;;;;;;;5046758;28;24387;-47
2022/09/19 13:09:12;;;;;;;1.80;1.70;;;;;;;;;;5046176;28;24422;-47
2022/09/19 13:11:43;;;;;;;2.20;2.00;;;;;;;;;;5042114;28;24431;-47
2022/09/19 13:14:14;;;;;;;2.50;2.10;;;;;;;;;;5046513;28;24398;-48
2022/09/19 13:23:30;;;;;;;2.40;2.20;;;;;;;;;;5046555;28;24537;-49
2022/09/19 13:24:57;;;;;;;2.20;2.00;;;;;;;;;;5026993;28;24988;-48
2022/09/19 13:27:25;;;;;;;2.50;2.30;;;;;;;;;;5026543;28;24411;-48
2022/09/19 13:29:53;;;;;;;2.45;2.25;;;;;;;;;;5026009;28;24483;-49
2022/09/19 13:32:27;;;;;;;2.30;2.10;;;;;;;;;;5030548;28;24423;-48
2022/09/19 13:35:11;;;;;;;2.20;2.10;;;;;;;;;;5036912;28;24781;-47
2022/09/19 13:37:41;;;;;;;2.20;2.10;;;;;;;;;;5037522;28;24425;-48
2022/09/19 13:40:16;;;;;;;4.00;1.80;;;;;;;;;;5037016;28;24569;-47
2022/09/19 13:42:50;;;;;;;2.00;1.80;;;;;;;;;;5030148;28;24861;-48
2022/09/19 13:45:34;;;;;;;2.00;1.80;;;;;;;;;;5034066;28;24779;-48
2022/09/19 13:48:04;;;;;;;1.60;1.50;;;;;;;;;;5039068;28;24439;-47
2022/09/19 13:50:39;;;;;;;1.85;1.75;;;;;;;;;;5043991;28;24588;-48
2022/09/19 13:53:06;;;;;;;1.40;1.30;;;;;;;;;;5040147;28;24426;-48
2022/09/19 13:55:32;;;;;;;1.90;1.60;;;;;;;;;;5038007;28;24990;-47
2022/09/19 13:58:17;;;;;;;1.80;1.70;;;;;;;;;;5038533;28;24447;-48
2022/09/19 14:00:43;;;;;;;1.83;1.70;;;;;;;;;;5032875;28;24525;-47
2022/09/19 14:03:24;;;;;;;1.90;1.80;;;;;;;;;;5044127;28;24976;-46
2022/09/19 14:05:49;;;;;;;1.77;1.67;;;;;;;;;;5034606;28;24402;-45
2022/09/19 14:08:27;;;;;;;1.60;1.50;;;;;;;;;;5031967;28;24554;-46
2022/09/19 14:10:53;;;;;;;1.67;1.58;;;;;;;;;;5047830;28;24435;-45
2022/09/19 14:13:26;;;;;;;1.70;1.60;;;;;;;;;;5040222;28;24404;-47
2022/09/19 14:16:02;;;;;;;1.70;1.60;;;;;;;;;;5067828;28;24395;-46
2022/09/19 14:18:29;;;;;;;1.40;1.30;;;;;;;;;;5040585;28;24478;-46
2022/09/19 14:20:56;;;;;;;1.30;1.10;;;;;;;;;;5038693;28;25053;-47
2022/09/19 14:23:23;;;;;;;1.50;1.10;;;;;;;;;;5036229;28;25067;-46
2022/09/19 14:26:06;;;;;;;1.90;0.97;;;;;;;;;;5046189;28;24422;-46
2022/09/19 14:28:43;;;;;;;1.40;1.30;;;;;;;;;;5032551;28;24430;-48
2022/09/19 14:31:14;;;;;;;1.60;1.07;;;;;;;;;;5028857;28;24419;-47
2022/09/19 14:33:42;;;;;;;2.20;1.00;;;;;;;;;;5029244;28;24399;-46
2022/09/19 14:36:25;;;;;;;1.27;0.90;;;;;;;;;;5028567;28;24966;-47
2022/09/19 14:38:51;;;;;;;1.40;1.30;;;;;;;;;;5044704;28;24498;-47
2022/09/19 14:41:31;;;;;;;0.90;0.90;;;;;;;;;;5047672;28;24697;-47
2022/09/19 14:44:05;;;;;;;1.40;1.00;;;;;;;;;;5032627;28;24542;-48
2022/09/19 14:46:34;;;;;;;1.50;1.20;;;;;;;;;;5037032;28;24519;-47
2022/09/19 14:49:28;;;;;;;0.90;0.90;;;;;;;;;;5028694;28;24419;-46
2022/09/19 14:51:58;;;;;;;1.10;1.00;;;;;;;;;;5031956;28;24411;-46
2022/09/19 14:54:31;;;;;;;1.20;1.10;;;;;;;;;;5028662;28;24794;-47
2022/09/19 14:57:00;;;;;;;0.90;0.90;;;;;;;;;;5030445;28;24427;-47
2022/09/19 14:59:25;;;;;;;0.90;0.90;;;;;;;;;;5028356;28;24441;-48
2022/09/19 15:01:53;;;;;;;1.00;0.80;;;;;;;;;;5028419;28;24443;-47
2022/09/19 15:04:23;;;;;;;1.20;0.70;;;;;;;;;;5026997;28;24538;-47
2022/09/19 15:06:51;;;;;;;1.30;1.00;;;;;;;;;;5030473;28;24403;-47
2022/09/19 15:09:21;;;;;;;0.90;0.90;;;;;;;;;;5040315;28;24446;-47
2022/09/19 15:11:54;;;;;;;1.35;1.05;;;;;;;;;;5048061;28;24937;-47
2022/09/19 15:14:22;;;;;;;1.30;1.20;;;;;;;;;;5047998;28;24478;-46
2022/09/19 15:16:47;;;;;;;1.20;1.10;;;;;;;;;;5048090;28;24402;-46